Paoli, Oklahoma
Current Conditions -  °F | °C
As of 1:55 PM on Friday 19 Dec 2014 (Local Time) from KPVJ Reporting Station
Overcast Overcast  
Wind Chill: 38°   Ceiling: 900
Heat Index: 42°   Visibility: 7mi
Dew Point: 39°   Wind: 6mph
Humidity: 91%   Direction: 10°N
Pressure: 30.18"   Gusts: NA
Location:  34.83°N, 97.26°W
Report Text: KPVJ 191955Z AUTO 01005KT 7SM OVC009 05/04 A3018 RMK AO2 T00540040
Loading
Personal Weather Stations






























Interactive Weather Map New forecast layout! Learn more

10-Day Weather Forecast

Advertisements
Track Severe Weather on mobile